createdAt,value
2017-09-10T00:02:11.688Z,12.90
2017-09-10T00:04:40.040Z,12.80
2017-09-10T00:07:07.600Z,12.80
2017-09-10T00:09:37.700Z,12.80
2017-09-10T00:12:05.568Z,12.70
2017-09-10T00:14:34.084Z,12.70
2017-09-10T00:17:02.448Z,12.70
2017-09-10T00:19:30.112Z,12.70
2017-09-10T00:21:57.782Z,12.70
2017-09-10T00:24:25.348Z,12.70
2017-09-10T00:26:53.684Z,12.60
2017-09-10T00:29:21.272Z,12.60
2017-09-10T00:31:48.832Z,12.60
2017-09-10T00:34:16.419Z,12.60
2017-09-10T00:36:44.751Z,12.60
2017-09-10T00:39:12.340Z,12.50
2017-09-10T00:41:39.995Z,12.60
2017-09-10T00:44:07.584Z,12.60
2017-09-10T00:46:37.641Z,12.60
2017-09-10T00:49:05.424Z,12.50
2017-09-10T00:51:32.988Z,12.60
2017-09-10T00:54:00.547Z,12.60
2017-09-10T00:56:28.333Z,12.50
2017-09-10T00:58:55.900Z,12.40
2017-09-10T01:01:24.232Z,12.40
2017-09-10T01:03:51.820Z,12.40
2017-09-10T01:06:19.384Z,12.40
2017-09-10T01:08:46.981Z,12.40
2017-09-10T01:11:14.545Z,12.40
2017-09-10T01:13:42.112Z,12.40
2017-09-10T01:16:09.705Z,12.40
2017-09-10T01:18:37.400Z,12.30
2017-09-10T01:21:05.325Z,12.30
2017-09-10T01:23:33.184Z,12.30
2017-09-10T01:26:02.207Z,12.20
2017-09-10T01:28:30.259Z,12.20
2017-09-10T01:30:58.604Z,12.20
2017-09-10T01:33:26.344Z,12.30
2017-09-10T01:35:53.908Z,12.30
2017-09-10T01:38:21.696Z,12.30
2017-09-10T01:40:50.020Z,12.30
2017-09-10T01:43:17.580Z,12.30
2017-09-10T01:45:45.168Z,12.30
2017-09-10T01:48:13.495Z,12.30
2017-09-10T01:50:41.313Z,12.30
2017-09-10T01:53:08.980Z,12.30
2017-09-10T01:55:36.953Z,12.30
2017-09-10T01:58:05.332Z,12.30
2017-09-10T02:00:32.984Z,12.30
2017-09-10T02:03:00.548Z,12.30
2017-09-10T02:05:28.208Z,12.30
2017-09-10T02:07:55.772Z,12.30
2017-09-10T02:10:24.127Z,12.20
2017-09-10T02:12:51.735Z,12.20
2017-09-10T02:15:20.089Z,12.20
2017-09-10T02:17:47.753Z,12.10
2017-09-10T02:20:15.342Z,12.10
2017-09-10T02:22:42.913Z,12.10
2017-09-10T02:25:10.531Z,12.00
2017-09-10T02:27:38.865Z,11.90
2017-09-10T02:30:06.472Z,12.00
2017-09-10T02:32:35.839Z,11.90
2017-09-10T02:35:03.404Z,11.90
2017-09-10T02:37:30.987Z,11.90
2017-09-10T02:39:58.555Z,11.90
2017-09-10T02:42:26.328Z,11.90
2017-09-10T02:44:54.668Z,11.90
2017-09-10T02:47:22.549Z,11.90
2017-09-10T02:49:50.233Z,11.90
2017-09-10T02:52:18.566Z,11.90
2017-09-10T02:54:46.137Z,11.90
2017-09-10T02:57:13.745Z,11.90
2017-09-10T02:59:42.080Z,11.90
2017-09-10T03:02:09.642Z,11.90
2017-09-10T03:04:37.428Z,11.90
2017-09-10T03:07:05.096Z,11.80
2017-09-10T03:09:32.657Z,11.80
2017-09-10T03:12:00.324Z,11.80
2017-09-10T03:14:27.884Z,11.70
2017-09-10T03:16:55.448Z,11.70
2017-09-10T03:19:23.099Z,11.70
2017-09-10T03:21:50.664Z,11.60
2017-09-10T03:24:18.252Z,11.60
2017-09-10T03:26:46.596Z,11.50
2017-09-10T03:29:14.181Z,11.50
2017-09-10T03:31:42.516Z,11.40
2017-09-10T03:34:10.105Z,11.40
2017-09-10T03:36:37.676Z,11.40
2017-09-10T03:39:05.268Z,11.40
2017-09-10T03:41:33.808Z,11.30
2017-09-10T03:44:01.393Z,11.30
2017-09-10T03:46:29.720Z,11.20
2017-09-10T03:48:57.512Z,11.20
2017-09-10T03:51:25.072Z,11.20
2017-09-10T03:53:52.635Z,11.20
2017-09-10T03:56:20.233Z,11.20
2017-09-10T03:58:47.796Z,11.10
2017-09-10T04:01:15.360Z,11.10
2017-09-10T04:03:42.948Z,11.10
2017-09-10T04:06:10.512Z,11.10
2017-09-10T04:08:38.100Z,11.00
2017-09-10T04:11:05.665Z,11.00
2017-09-10T04:13:35.660Z,10.90
2017-09-10T04:16:03.221Z,10.90
2017-09-10T04:18:30.808Z,10.90
2017-09-10T04:20:58.383Z,10.80
2017-09-10T04:23:26.740Z,10.70
2017-09-10T04:25:54.396Z,10.70
2017-09-10T04:28:21.985Z,10.60
2017-09-10T04:30:49.551Z,10.60
2017-09-10T04:33:17.904Z,10.60
2017-09-10T04:35:45.564Z,10.60
2017-09-10T04:38:13.923Z,10.60
2017-09-10T04:40:41.497Z,10.60
2017-09-10T04:43:09.080Z,10.60
2017-09-10T04:45:37.137Z,10.70
2017-09-10T04:48:06.334Z,10.70
2017-09-10T04:50:35.707Z,10.60
2017-09-10T04:53:03.296Z,10.60
2017-09-10T04:55:30.866Z,10.60
2017-09-10T04:57:59.237Z,10.60
2017-09-10T05:00:26.808Z,10.60
2017-09-10T05:02:54.408Z,10.60
2017-09-10T05:05:22.020Z,10.60
2017-09-10T05:07:49.580Z,10.70
2017-09-10T05:10:17.961Z,10.70
2017-09-10T05:12:45.623Z,10.70
2017-09-10T05:15:14.001Z,10.90
2017-09-10T05:17:41.603Z,10.90
2017-09-10T05:20:09.164Z,10.90
2017-09-10T05:22:36.807Z,11.00
2017-09-10T05:25:04.392Z,11.00
2017-09-10T05:27:31.951Z,11.10
2017-09-10T05:29:59.540Z,11.10
2017-09-10T05:32:27.100Z,11.20
2017-09-10T05:34:55.076Z,11.40
2017-09-10T05:37:22.637Z,11.40
2017-09-10T05:39:50.205Z,11.50
2017-09-10T05:42:17.980Z,11.50
2017-09-10T05:44:45.548Z,11.50
2017-09-10T05:47:13.883Z,11.60
2017-09-10T05:49:41.476Z,11.60
2017-09-10T05:52:09.041Z,11.70
2017-09-10T05:54:36.846Z,11.80
2017-09-10T05:57:04.408Z,11.80
2017-09-10T05:59:31.997Z,11.80
2017-09-10T06:01:59.560Z,11.80
2017-09-10T06:04:27.148Z,11.90
2017-09-10T06:06:54.712Z,12.00
2017-09-10T06:09:22.604Z,12.10
2017-09-10T06:11:50.929Z,12.60
2017-09-10T06:14:18.496Z,12.60
2017-09-10T06:16:46.086Z,13.40
2017-09-10T06:19:13.669Z,14.30
2017-09-10T06:21:41.261Z,15.20
2017-09-10T06:24:08.827Z,15.70
2017-09-10T06:26:37.856Z,16.40
2017-09-10T06:29:05.417Z,16.30
2017-09-10T06:31:33.007Z,16.40
2017-09-10T06:34:01.336Z,16.30
2017-09-10T06:36:28.920Z,16.30
2017-09-10T06:38:56.484Z,16.50
2017-09-10T06:41:24.860Z,16.60
2017-09-10T06:43:52.420Z,16.60
2017-09-10T06:46:19.981Z,16.50
2017-09-10T06:48:47.641Z,16.40
2017-09-10T06:51:15.969Z,16.90
2017-09-10T06:53:43.559Z,16.90
2017-09-10T06:56:11.145Z,17.40
2017-09-10T06:58:38.736Z,17.50
2017-09-10T07:01:06.301Z,17.10
2017-09-10T07:03:36.071Z,17.20
2017-09-10T07:06:03.631Z,17.20
2017-09-10T07:08:31.197Z,17.40
2017-09-10T07:10:58.919Z,18.10
2017-09-10T07:13:26.520Z,18.80
2017-09-10T07:15:54.105Z,19.20
2017-09-10T07:18:22.625Z,19.70
2017-09-10T07:20:50.799Z,19.70
2017-09-10T07:23:18.667Z,19.70
2017-09-10T07:25:46.637Z,19.80
2017-09-10T07:28:15.118Z,19.40
2017-09-10T07:30:42.884Z,19.60
2017-09-10T07:33:10.853Z,20.20
2017-09-10T07:35:38.824Z,20.60
2017-09-10T07:38:06.568Z,20.60
2017-09-10T07:40:36.197Z,21.30
2017-09-10T07:43:04.063Z,21.20
2017-09-10T07:45:31.932Z,21.40
2017-09-10T07:47:59.801Z,22.20
2017-09-10T07:50:27.769Z,23.10
2017-09-10T07:52:55.739Z,23.60
2017-09-10T07:55:23.606Z,24.40
2017-09-10T07:57:51.459Z,25.00
2017-09-10T08:00:19.319Z,25.00
2017-09-10T08:02:47.313Z,24.50
2017-09-10T08:05:15.179Z,24.30
2017-09-10T08:07:43.184Z,24.00
2017-09-10T08:10:10.748Z,23.90
2017-09-10T08:12:38.308Z,24.10
2017-09-10T08:15:08.022Z,24.50
2017-09-10T08:17:36.671Z,24.50
2017-09-10T08:20:04.233Z,24.40
2017-09-10T08:22:31.824Z,24.70
2017-09-10T08:24:59.384Z,25.70
2017-09-10T08:27:27.437Z,26.40
2017-09-10T08:29:55.016Z,26.40
2017-09-10T08:32:22.577Z,27.00
2017-09-10T08:34:50.444Z,27.10
2017-09-10T08:37:18.008Z,26.90
2017-09-10T08:39:45.567Z,27.00
2017-09-10T08:42:13.924Z,26.10
2017-09-10T08:44:41.508Z,26.10
2017-09-10T08:47:09.872Z,25.30
2017-09-10T08:49:37.443Z,25.30
2017-09-10T08:52:05.012Z,25.50
2017-09-10T08:54:32.663Z,25.60
2017-09-10T08:57:00.230Z,26.20
2017-09-10T08:59:27.857Z,26.90
2017-09-10T09:01:55.655Z,27.10
2017-09-10T09:04:23.320Z,27.10
2017-09-10T09:06:50.880Z,27.80
2017-09-10T09:09:18.725Z,28.50
2017-09-10T09:11:46.293Z,29.50
2017-09-10T09:14:14.048Z,29.10
2017-09-10T09:16:41.632Z,29.30
2017-09-10T09:19:09.196Z,29.20
2017-09-10T09:21:37.139Z,28.80
2017-09-10T09:24:04.705Z,28.30
2017-09-10T09:26:32.275Z,28.60
2017-09-10T09:28:59.861Z,29.10
2017-09-10T09:31:27.425Z,29.40
2017-09-10T09:33:55.784Z,29.30
2017-09-10T09:36:23.345Z,29.30
2017-09-10T09:38:51.108Z,28.10
2017-09-10T09:41:18.672Z,26.90
2017-09-10T09:43:47.024Z,27.70
2017-09-10T09:46:14.613Z,27.80
2017-09-10T09:48:42.193Z,27.10
2017-09-10T09:51:09.796Z,27.10
2017-09-10T09:53:37.364Z,28.70
2017-09-10T09:56:05.148Z,29.30
2017-09-10T09:58:32.820Z,29.30
2017-09-10T10:01:00.384Z,28.30
2017-09-10T10:03:27.972Z,27.10
2017-09-10T10:05:55.539Z,26.80
2017-09-10T10:08:23.121Z,26.50
2017-09-10T10:10:50.728Z,26.50
2017-09-10T10:13:19.113Z,25.90
2017-09-10T10:15:47.464Z,27.70
2017-09-10T10:18:15.058Z,27.70
2017-09-10T10:20:43.389Z,31.40
2017-09-10T10:23:10.988Z,31.30
2017-09-10T10:25:39.320Z,33.40
2017-09-10T10:28:06.932Z,33.30
2017-09-10T10:30:35.773Z,32.00
2017-09-10T10:33:03.356Z,31.90
2017-09-10T10:35:31.001Z,30.80
2017-09-10T10:37:58.585Z,31.20
2017-09-10T10:40:26.242Z,32.00
2017-09-10T10:42:53.852Z,31.30
2017-09-10T10:45:21.541Z,30.00
2017-09-10T10:47:49.206Z,28.50
2017-09-10T10:50:16.789Z,27.70
2017-09-10T10:52:44.355Z,26.90
2017-09-10T10:55:11.935Z,25.30
2017-09-10T10:57:40.269Z,25.00
2017-09-10T11:00:07.856Z,25.00
2017-09-10T11:02:36.840Z,25.90
2017-09-10T11:05:04.420Z,25.80
2017-09-10T11:07:31.993Z,25.30
2017-09-10T11:10:00.423Z,23.40
2017-09-10T11:12:28.025Z,23.30
2017-09-10T11:14:55.683Z,23.20
2017-09-10T11:17:23.268Z,23.80
2017-09-10T11:19:51.648Z,25.90
2017-09-10T11:22:20.004Z,25.50
2017-09-10T11:24:47.567Z,25.40
2017-09-10T11:27:15.228Z,24.40
2017-09-10T11:29:42.793Z,24.40
2017-09-10T11:32:10.424Z,26.20
2017-09-10T11:34:38.023Z,27.00
2017-09-10T11:37:06.391Z,28.10
2017-09-10T11:39:35.749Z,29.40
2017-09-10T11:42:03.328Z,29.40
2017-09-10T11:44:30.923Z,28.80
2017-09-10T11:46:59.272Z,30.80
2017-09-10T11:49:26.919Z,30.80
2017-09-10T11:51:54.562Z,31.20
2017-09-10T11:54:22.176Z,31.70
2017-09-10T11:56:49.840Z,31.70
2017-09-10T11:59:17.425Z,30.80
2017-09-10T12:01:44.985Z,28.70
2017-09-10T12:04:12.572Z,29.00
2017-09-10T12:06:40.436Z,30.70
2017-09-10T12:09:08.060Z,32.60
2017-09-10T12:11:37.514Z,29.10
2017-09-10T12:14:05.343Z,29.00
2017-09-10T12:16:34.625Z,25.40
2017-09-10T12:19:02.292Z,25.30
2017-09-10T12:21:29.937Z,24.60
2017-09-10T12:23:57.611Z,23.60
2017-09-10T12:26:25.272Z,23.20
2017-09-10T12:28:52.890Z,23.30
2017-09-10T12:31:20.496Z,23.30
2017-09-10T12:33:48.056Z,23.50
2017-09-10T12:36:16.171Z,23.50
2017-09-10T12:38:44.084Z,23.50
2017-09-10T12:41:12.172Z,23.10
2017-09-10T12:43:40.005Z,22.90
2017-09-10T12:46:07.594Z,22.80
2017-09-10T12:48:35.884Z,22.60
2017-09-10T12:51:03.472Z,22.50
2017-09-10T12:53:31.332Z,22.10
2017-09-10T12:55:59.925Z,21.10
2017-09-10T12:58:27.504Z,21.10
2017-09-10T13:00:55.102Z,21.00
2017-09-10T13:03:22.876Z,20.90
2017-09-10T13:05:50.540Z,20.90
2017-09-10T13:08:18.175Z,20.80
2017-09-10T13:10:45.785Z,20.90
2017-09-10T13:13:13.428Z,20.90
2017-09-10T13:15:41.000Z,21.00
2017-09-10T13:18:08.592Z,21.70
2017-09-10T13:20:38.625Z,23.00
2017-09-10T13:23:06.215Z,23.00
2017-09-10T13:25:33.883Z,22.50
2017-09-10T13:28:01.488Z,22.40
2017-09-10T13:30:29.117Z,22.50
2017-09-10T13:32:56.776Z,24.30
2017-09-10T13:35:24.359Z,25.40
2017-09-10T13:37:52.688Z,27.80
2017-09-10T13:40:20.309Z,27.80
2017-09-10T13:42:47.868Z,27.90
2017-09-10T13:45:15.496Z,28.50
2017-09-10T13:47:43.530Z,29.10
2017-09-10T13:50:11.113Z,29.80
2017-09-10T13:52:39.792Z,30.30
2017-09-10T13:55:07.385Z,29.30
2017-09-10T13:57:34.948Z,27.60
2017-09-10T14:00:02.592Z,25.90
2017-09-10T14:02:30.152Z,25.10
2017-09-10T14:04:57.768Z,24.30
2017-09-10T14:07:25.379Z,23.50
2017-09-10T14:09:52.956Z,23.60
2017-09-10T14:12:21.304Z,26.60
2017-09-10T14:14:48.869Z,26.60
2017-09-10T14:17:16.451Z,26.10
2017-09-10T14:19:44.777Z,25.10
2017-09-10T14:22:12.361Z,25.00
2017-09-10T14:24:39.948Z,23.60
2017-09-10T14:27:07.599Z,22.50
2017-09-10T14:29:35.164Z,23.50
2017-09-10T14:32:02.738Z,24.30
2017-09-10T14:34:31.093Z,25.20
2017-09-10T14:36:59.437Z,25.40
2017-09-10T14:39:27.040Z,25.40
2017-09-10T14:41:54.601Z,24.30
2017-09-10T14:44:22.189Z,24.40
2017-09-10T14:46:50.516Z,25.40
2017-09-10T14:49:18.104Z,25.30
2017-09-10T14:51:45.685Z,25.80
2017-09-10T14:54:14.063Z,25.40
2017-09-10T14:56:42.408Z,25.30
2017-09-10T14:59:09.967Z,25.30
2017-09-10T15:01:38.752Z,24.10
2017-09-10T15:04:06.336Z,24.00
2017-09-10T15:06:34.721Z,23.50
2017-09-10T15:09:02.288Z,23.50
2017-09-10T15:11:30.650Z,23.50
2017-09-10T15:13:59.040Z,23.40
2017-09-10T15:16:27.388Z,23.80
2017-09-10T15:18:54.972Z,23.80
2017-09-10T15:21:22.580Z,23.80
2017-09-10T15:23:50.192Z,23.60
2017-09-10T15:26:17.762Z,23.40
2017-09-10T15:28:45.351Z,23.30
2017-09-10T15:31:12.912Z,23.60
2017-09-10T15:33:40.504Z,23.60
2017-09-10T15:36:08.071Z,23.50
2017-09-10T15:38:35.667Z,23.60
2017-09-10T15:41:04.044Z,23.00
2017-09-10T15:43:31.704Z,23.00
2017-09-10T15:45:59.264Z,22.50
2017-09-10T15:48:27.639Z,22.10
2017-09-10T15:50:55.204Z,22.00
2017-09-10T15:53:22.801Z,22.00
2017-09-10T15:55:50.364Z,21.70
2017-09-10T15:58:17.948Z,21.70
2017-09-10T16:00:45.607Z,21.70
2017-09-10T16:03:13.212Z,21.60
2017-09-10T16:05:40.808Z,21.50
2017-09-10T16:08:08.372Z,21.00
2017-09-10T16:10:37.644Z,21.00
2017-09-10T16:13:06.007Z,20.90
2017-09-10T16:15:33.597Z,20.90
2017-09-10T16:18:01.948Z,21.10
2017-09-10T16:20:29.537Z,21.10
2017-09-10T16:22:57.100Z,20.90
2017-09-10T16:25:24.695Z,21.00
2017-09-10T16:27:52.255Z,21.00
2017-09-10T16:30:19.844Z,21.00
2017-09-10T16:32:47.411Z,20.90
2017-09-10T16:35:15.013Z,20.70
2017-09-10T16:37:42.577Z,20.50
2017-09-10T16:40:10.198Z,20.40
2017-09-10T16:42:39.088Z,19.90
2017-09-10T16:45:07.437Z,19.70
2017-09-10T16:47:35.004Z,19.70
2017-09-10T16:50:02.821Z,19.50
2017-09-10T16:52:31.148Z,19.00
2017-09-10T16:54:58.715Z,19.00
2017-09-10T16:57:26.492Z,18.80
2017-09-10T16:59:54.153Z,18.60
2017-09-10T17:02:22.493Z,18.30
2017-09-10T17:04:50.104Z,18.30
2017-09-10T17:07:17.669Z,18.10
2017-09-10T17:09:46.036Z,17.50
2017-09-10T17:12:13.605Z,17.40
2017-09-10T17:14:41.969Z,16.90
2017-09-10T17:17:10.304Z,16.80
2017-09-10T17:19:38.736Z,16.60
2017-09-10T17:22:06.400Z,16.50
2017-09-10T17:24:37.558Z,16.40
2017-09-10T17:27:05.208Z,16.30
2017-09-10T17:29:32.768Z,16.20
2017-09-10T17:32:00.432Z,16.00
2017-09-10T17:34:28.783Z,15.60
2017-09-10T17:36:56.371Z,15.60
2017-09-10T17:39:23.958Z,15.50
2017-09-10T17:41:51.546Z,15.40
2017-09-10T17:44:19.156Z,15.20
2017-09-10T17:46:46.820Z,15.10
2017-09-10T17:49:14.660Z,15.00
2017-09-10T17:51:42.263Z,14.90
2017-09-10T17:54:10.592Z,14.60
2017-09-10T17:56:39.472Z,14.50
2017-09-10T17:59:07.081Z,14.50
2017-09-10T18:01:35.409Z,14.20
2017-09-10T18:04:03.016Z,14.20
2017-09-10T18:06:30.580Z,14.10
2017-09-10T18:08:58.168Z,14.00
2017-09-10T18:11:25.728Z,13.90
2017-09-10T18:13:53.339Z,13.80
2017-09-10T18:16:20.899Z,13.80
2017-09-10T18:18:48.464Z,13.70
2017-09-10T18:21:16.244Z,13.70
2017-09-10T18:23:44.572Z,13.50
2017-09-10T18:26:12.910Z,13.40
2017-09-10T18:28:40.513Z,13.30
2017-09-10T18:31:08.076Z,13.30
2017-09-10T18:33:35.888Z,13.30
2017-09-10T18:36:03.456Z,13.20
2017-09-10T18:38:31.784Z,13.10
2017-09-10T18:40:59.409Z,13.00
2017-09-10T18:43:27.764Z,13.00
2017-09-10T18:45:55.324Z,13.00
2017-09-10T18:48:22.908Z,13.00
2017-09-10T18:50:51.236Z,12.90
2017-09-10T18:53:18.828Z,12.80
2017-09-10T18:55:46.396Z,12.80
2017-09-10T18:58:14.748Z,12.60
2017-09-10T19:00:42.330Z,12.60
2017-09-10T19:03:09.935Z,12.60
2017-09-10T19:05:38.844Z,12.60
2017-09-10T19:08:06.408Z,12.60
2017-09-10T19:10:33.995Z,12.60
2017-09-10T19:13:01.559Z,12.70
2017-09-10T19:15:29.154Z,12.80
2017-09-10T19:17:56.716Z,12.80
2017-09-10T19:20:24.313Z,12.70
2017-09-10T19:22:51.876Z,12.70
2017-09-10T19:25:19.444Z,12.70
2017-09-10T19:27:47.031Z,12.60
2017-09-10T19:30:14.686Z,12.50
2017-09-10T19:32:42.275Z,12.40
2017-09-10T19:35:10.607Z,12.30
2017-09-10T19:37:40.744Z,12.30
2017-09-10T19:40:08.303Z,12.30
2017-09-10T19:42:35.887Z,12.30
2017-09-10T19:45:03.449Z,12.20
2017-09-10T19:47:31.048Z,12.20
2017-09-10T19:49:58.815Z,12.20
2017-09-10T19:52:26.380Z,12.10
2017-09-10T19:54:53.980Z,12.20
2017-09-10T19:57:21.543Z,12.20
2017-09-10T19:59:49.104Z,12.10
2017-09-10T20:02:17.680Z,12.00
2017-09-10T20:04:45.398Z,12.00
2017-09-10T20:07:12.976Z,11.90
2017-09-10T20:09:40.668Z,11.90
2017-09-10T20:12:08.233Z,11.90
2017-09-10T20:14:35.823Z,12.00
2017-09-10T20:17:03.396Z,12.00
2017-09-10T20:19:31.012Z,12.00
2017-09-10T20:21:59.349Z,12.00
2017-09-10T20:24:26.915Z,12.00
2017-09-10T20:26:54.612Z,12.10
2017-09-10T20:29:22.272Z,12.10
2017-09-10T20:31:49.880Z,12.10
2017-09-10T20:34:17.623Z,12.20
2017-09-10T20:36:45.962Z,12.10
2017-09-10T20:39:13.732Z,12.00
2017-09-10T20:41:41.301Z,12.10
2017-09-10T20:44:09.684Z,12.00
2017-09-10T20:46:38.668Z,12.10
2017-09-10T20:49:06.227Z,12.00
2017-09-10T20:51:33.900Z,12.20
2017-09-10T20:54:01.498Z,12.10
2017-09-10T20:56:29.060Z,12.00
2017-09-10T20:58:56.644Z,12.00
2017-09-10T21:01:24.207Z,11.90
2017-09-10T21:03:51.800Z,11.80
2017-09-10T21:06:19.363Z,11.80
2017-09-10T21:08:46.973Z,11.90
2017-09-10T21:11:14.540Z,12.00
2017-09-10T21:13:42.105Z,12.00
2017-09-10T21:16:09.807Z,12.00
2017-09-10T21:18:38.114Z,11.90
2017-09-10T21:21:06.439Z,11.90
2017-09-10T21:23:34.025Z,11.90
2017-09-10T21:26:01.588Z,11.80
2017-09-10T21:28:29.359Z,11.80
2017-09-10T21:30:56.924Z,11.70
2017-09-10T21:33:25.255Z,11.70
2017-09-10T21:35:52.839Z,11.60
2017-09-10T21:38:20.406Z,11.60
2017-09-10T21:40:48.001Z,11.60
2017-09-10T21:43:15.637Z,11.50
2017-09-10T21:45:43.520Z,11.50
2017-09-10T21:48:11.847Z,11.40
2017-09-10T21:50:40.556Z,11.30
2017-09-10T21:53:08.144Z,11.30
2017-09-10T21:55:37.397Z,11.30
2017-09-10T21:58:05.092Z,11.30
2017-09-10T22:00:32.667Z,11.30
2017-09-10T22:03:00.268Z,11.20
2017-09-10T22:05:27.876Z,11.20
2017-09-10T22:07:55.436Z,11.10
2017-09-10T22:10:23.020Z,11.10
2017-09-10T22:12:51.377Z,11.30
2017-09-10T22:15:19.140Z,11.30
2017-09-10T22:17:46.711Z,11.60
2017-09-10T22:20:15.087Z,11.70
2017-09-10T22:22:42.672Z,11.70
2017-09-10T22:25:10.305Z,11.60
2017-09-10T22:27:39.824Z,11.60
2017-09-10T22:30:07.399Z,11.60
2017-09-10T22:32:35.728Z,11.50
2017-09-10T22:35:03.576Z,11.50
2017-09-10T22:37:31.143Z,11.30
2017-09-10T22:39:58.737Z,11.20
2017-09-10T22:42:26.299Z,11.00
2017-09-10T22:44:54.676Z,10.70
2017-09-10T22:47:22.241Z,10.70
2017-09-10T22:49:49.844Z,10.60
2017-09-10T22:52:17.457Z,10.50
2017-09-10T22:54:45.062Z,10.40
2017-09-10T22:57:12.629Z,10.30
2017-09-10T22:59:40.192Z,10.30
2017-09-10T23:02:07.909Z,10.20
2017-09-10T23:04:35.472Z,10.10
2017-09-10T23:07:03.031Z,10.10
2017-09-10T23:09:30.619Z,10.00
2017-09-10T23:11:58.968Z,10.10
2017-09-10T23:14:26.560Z,10.10
2017-09-10T23:16:54.196Z,10.40
2017-09-10T23:19:21.793Z,10.70
2017-09-10T23:21:49.361Z,11.10
2017-09-10T23:24:16.949Z,11.40
2017-09-10T23:26:44.512Z,11.50
2017-09-10T23:29:12.380Z,11.70
2017-09-10T23:31:39.969Z,11.70
2017-09-10T23:34:07.529Z,11.70
2017-09-10T23:36:35.903Z,12.00
2017-09-10T23:39:03.509Z,12.00
2017-09-10T23:41:31.067Z,12.10
2017-09-10T23:43:58.684Z,12.20
2017-09-10T23:46:26.277Z,12.20
2017-09-10T23:48:53.868Z,12.20
2017-09-10T23:51:21.467Z,12.20
2017-09-10T23:53:49.056Z,12.30
2017-09-10T23:56:17.383Z,12.30
2017-09-10T23:58:45.125Z,12.20
